EJU5109 EDDB-GCRR
Flight info
| Callsign | EJU5109 |
|---|---|
| Flight time | N/A |
| Altitude | 34000 |
| Route | KISUC1N KISUC Z117 ORTAG DCT BAMKI DCT IBAGA DCT DKB DCT TEDGO/N0447F330 N869 NATOR DCT LUTIX/N0449F350 DCT BENOT DCT NEMOS DCT NINTU DCT MEBAK DCT REPSI DCT LERGA DCT MINSO DCT NARAK DCT AGN DCT MAQAB DCT TIVLI N869 ZAR Z245 CJN DCT VTB DCT INPAN DCT CRISA DCT HIJ DCT SVL DCT CLANA DCT KORNO UN857 TERTO |
| Aircraft | A21N/M-SDE3FGHIRWY/LB1 |
Departure
| Time | 2026-05-01 09:38 |
|---|---|
| Airport | Berlin Brandenburg Airport (EDDB) |
Arrival
| Time | N/A |
|---|---|
| Airport | César Manrique-Lanzarote Airport (GCRR) |
| Time | Latitude | Longitude | Altitude | Speed | Heading |
|---|---|---|---|---|---|
| 2026-05-01 09:02 | 52.36123 | 13.51299 | 146 ft | 0 kts | 339° |
| 2026-05-01 09:29 | 52.36099 | 13.51313 | 147 ft | 2 kts | 338° |
| 2026-05-01 09:29 | 52.36085 | 13.51322 | 147 ft | 2 kts | 339° |
| 2026-05-01 09:30 | 52.36056 | 13.51323 | 148 ft | 2 kts | 18° |
| 2026-05-01 09:30 | 52.36042 | 13.51312 | 148 ft | 2 kts | 36° |
| 2026-05-01 09:30 | 52.36026 | 13.51279 | 148 ft | 0 kts | 66° |
| 2026-05-01 09:31 | 52.36023 | 13.51269 | 148 ft | 0 kts | 69° |
| 2026-05-01 09:34 | 52.36024 | 13.51269 | 148 ft | 0 kts | 69° |
| 2026-05-01 09:34 | 52.36024 | 13.51272 | 148 ft | 1 kts | 69° |
| 2026-05-01 09:34 | 52.36063 | 13.51439 | 150 ft | 11 kts | 68° |
| 2026-05-01 09:35 | 52.36094 | 13.51568 | 149 ft | 13 kts | 69° |
| 2026-05-01 09:35 | 52.36127 | 13.51817 | 149 ft | 9 kts | 139° |
| 2026-05-01 09:35 | 52.36082 | 13.51909 | 147 ft | 12 kts | 85° |
| 2026-05-01 09:36 | 52.36112 | 13.52050 | 146 ft | 10 kts | 76° |
| 2026-05-01 09:36 | 52.36069 | 13.52138 | 146 ft | 11 kts | 158° |
| 2026-05-01 09:36 | 52.35993 | 13.52187 | 146 ft | 11 kts | 158° |
| 2026-05-01 09:36 | 52.35915 | 13.52236 | 145 ft | 12 kts | 159° |
| 2026-05-01 09:37 | 52.35851 | 13.52266 | 145 ft | 8 kts | 190° |
| 2026-05-01 09:37 | 52.35771 | 13.52013 | 145 ft | 34 kts | 248° |
| 2026-05-01 09:37 | 52.35596 | 13.51278 | 147 ft | 102 kts | 248° |
| 2026-05-01 09:38 | 52.34881 | 13.48116 | 481 ft | 169 kts | 251° |
| 2026-05-01 09:38 | 52.34378 | 13.46300 | 1280 ft | 157 kts | 238° |
| 2026-05-01 09:38 | 52.33735 | 13.44900 | 1865 ft | 154 kts | 233° |
| 2026-05-01 09:39 | 52.32360 | 13.41800 | 2482 ft | 178 kts | 232° |
| 2026-05-01 09:39 | 52.31456 | 13.40108 | 2787 ft | 194 kts | 227° |
| 2026-05-01 09:39 | 52.30496 | 13.38408 | 3117 ft | 211 kts | 227° |
| 2026-05-01 09:40 | 52.29472 | 13.36570 | 3454 ft | 227 kts | 228° |
| 2026-05-01 09:40 | 52.27207 | 13.32408 | 4476 ft | 248 kts | 228° |
| 2026-05-01 09:40 | 52.26091 | 13.30335 | 5204 ft | 248 kts | 228° |
| 2026-05-01 09:41 | 52.24941 | 13.28158 | 5847 ft | 253 kts | 232° |
| 2026-05-01 09:41 | 52.23211 | 13.22786 | 6864 ft | 275 kts | 248° |
| 2026-05-01 09:41 | 52.22434 | 13.19598 | 7291 ft | 291 kts | 249° |
| 2026-05-01 09:42 | 52.21691 | 13.16542 | 7878 ft | 297 kts | 248° |
| 2026-05-01 09:42 | 52.20912 | 13.13389 | 8553 ft | 301 kts | 248° |
| 2026-05-01 09:42 | 52.19313 | 13.07033 | 9842 ft | 309 kts | 248° |
| 2026-05-01 09:43 | 52.17664 | 13.00529 | 11079 ft | 317 kts | 248° |
| 2026-05-01 09:43 | 52.16814 | 12.97078 | 11683 ft | 321 kts | 250° |
| 2026-05-01 09:43 | 52.16105 | 12.93457 | 12261 ft | 326 kts | 255° |
| 2026-05-01 09:44 | 52.14939 | 12.85273 | 12912 ft | 357 kts | 258° |
| 2026-05-01 09:44 | 52.14383 | 12.81236 | 13180 ft | 372 kts | 258° |
| 2026-05-01 09:44 | 52.13796 | 12.77034 | 13494 ft | 384 kts | 257° |
| 2026-05-01 09:45 | 52.13198 | 12.72809 | 14007 ft | 389 kts | 257° |
| 2026-05-01 09:45 | 52.11974 | 12.64229 | 15197 ft | 394 kts | 258° |
| 2026-05-01 09:45 | 52.11352 | 12.59880 | 15773 ft | 396 kts | 258° |
| 2026-05-01 09:46 | 52.10722 | 12.55490 | 16330 ft | 399 kts | 258° |
| 2026-05-01 09:46 | 52.10032 | 12.50699 | 16926 ft | 402 kts | 258° |
| 2026-05-01 09:46 | 52.09330 | 12.45845 | 17516 ft | 404 kts | 258° |
| 2026-05-01 09:46 | 52.08675 | 12.41332 | 18040 ft | 407 kts | 258° |
| 2026-05-01 09:47 | 52.08011 | 12.36826 | 18553 ft | 410 kts | 256° |
| 2026-05-01 09:47 | 52.07068 | 12.32489 | 19036 ft | 413 kts | 246° |
| 2026-05-01 09:47 | 52.05621 | 12.28257 | 19548 ft | 415 kts | 235° |
| 2026-05-01 09:47 | 52.03927 | 12.24447 | 20042 ft | 417 kts | 232° |
| 2026-05-01 09:48 | 52.02190 | 12.20725 | 20507 ft | 419 kts | 232° |
| 2026-05-01 09:48 | 52.00415 | 12.16940 | 20967 ft | 422 kts | 232° |
| 2026-05-01 09:48 | 51.98650 | 12.13154 | 21419 ft | 424 kts | 232° |
| 2026-05-01 09:48 | 51.96896 | 12.09372 | 21878 ft | 426 kts | 232° |
| 2026-05-01 09:49 | 51.95113 | 12.05516 | 22324 ft | 428 kts | 232° |
| 2026-05-01 09:49 | 51.93340 | 12.01682 | 22742 ft | 430 kts | 232° |
| 2026-05-01 09:49 | 51.91537 | 11.97783 | 23154 ft | 432 kts | 232° |
| 2026-05-01 09:49 | 51.89751 | 11.93928 | 23553 ft | 434 kts | 233° |
| 2026-05-01 09:50 | 51.87887 | 11.89908 | 23965 ft | 436 kts | 233° |
| 2026-05-01 09:50 | 51.86028 | 11.85910 | 24365 ft | 438 kts | 233° |
| 2026-05-01 09:50 | 51.84142 | 11.81867 | 24759 ft | 440 kts | 232° |
| 2026-05-01 09:50 | 51.82197 | 11.77747 | 25134 ft | 442 kts | 232° |
| 2026-05-01 09:51 | 51.80213 | 11.73567 | 25498 ft | 444 kts | 232° |
| 2026-05-01 09:51 | 51.78252 | 11.69530 | 25839 ft | 446 kts | 229° |
| 2026-05-01 09:51 | 51.75889 | 11.66400 | 26060 ft | 446 kts | 207° |
| 2026-05-01 09:51 | 51.73023 | 11.64510 | 26420 ft | 444 kts | 197° |
| 2026-05-01 09:52 | 51.70059 | 11.63036 | 26714 ft | 446 kts | 195° |
| 2026-05-01 09:52 | 51.67110 | 11.61594 | 26967 ft | 449 kts | 196° |
| 2026-05-01 09:52 | 51.64148 | 11.60075 | 27233 ft | 451 kts | 197° |
| 2026-05-01 09:52 | 51.61163 | 11.58475 | 27507 ft | 453 kts | 198° |
| 2026-05-01 09:53 | 51.58176 | 11.56825 | 27774 ft | 455 kts | 198° |
| 2026-05-01 09:53 | 51.55207 | 11.55155 | 28027 ft | 456 kts | 198° |
| 2026-05-01 09:53 | 51.52206 | 11.53449 | 28272 ft | 458 kts | 199° |
| 2026-05-01 09:53 | 51.49223 | 11.51746 | 28513 ft | 460 kts | 199° |
| 2026-05-01 09:54 | 51.46212 | 11.50024 | 28821 ft | 459 kts | 199° |
| 2026-05-01 09:54 | 51.43231 | 11.48318 | 29160 ft | 459 kts | 199° |
| 2026-05-01 09:54 | 51.40228 | 11.46599 | 29487 ft | 458 kts | 199° |
| 2026-05-01 09:54 | 51.37253 | 11.44900 | 29798 ft | 457 kts | 199° |
| 2026-05-01 09:55 | 51.34248 | 11.43185 | 30110 ft | 456 kts | 199° |
| 2026-05-01 09:55 | 51.31294 | 11.41501 | 30406 ft | 456 kts | 199° |
| 2026-05-01 09:55 | 51.28307 | 11.39801 | 30698 ft | 455 kts | 199° |
| 2026-05-01 09:55 | 51.25365 | 11.38129 | 30968 ft | 454 kts | 199° |
| 2026-05-01 09:56 | 51.22379 | 11.36434 | 31230 ft | 453 kts | 199° |
| 2026-05-01 09:56 | 51.19410 | 11.34751 | 31476 ft | 453 kts | 198° |
| 2026-05-01 09:56 | 51.16454 | 11.33077 | 31699 ft | 453 kts | 198° |
| 2026-05-01 09:56 | 51.13507 | 11.31411 | 31927 ft | 453 kts | 198° |
| 2026-05-01 09:57 | 51.10528 | 11.29730 | 32156 ft | 452 kts | 198° |
| 2026-05-01 09:57 | 51.07597 | 11.28078 | 32360 ft | 452 kts | 198° |
| 2026-05-01 09:57 | 51.01694 | 11.24756 | 32399 ft | 451 kts | 198° |
| 2026-05-01 09:58 | 50.95783 | 11.21438 | 32401 ft | 451 kts | 198° |
| 2026-05-01 09:58 | 50.89852 | 11.18119 | 32670 ft | 452 kts | 199° |
| 2026-05-01 09:59 | 50.86893 | 11.16466 | 32884 ft | 452 kts | 199° |
| 2026-05-01 09:59 | 50.83940 | 11.14820 | 33035 ft | 452 kts | 199° |